createdAt,value
2023-02-13T00:00:50.559Z,36.33
2023-02-13T00:03:16.579Z,36.45
2023-02-13T00:05:41.174Z,35.75
2023-02-13T00:08:07.413Z,44.13
2023-02-13T00:10:32.009Z,46.65
2023-02-13T00:12:57.407Z,44.58
2023-02-13T00:15:23.177Z,46.10
2023-02-13T00:17:47.918Z,45.42
2023-02-13T00:20:13.235Z,43.15
2023-02-13T00:22:38.128Z,44.95
2023-02-13T00:25:04.247Z,47.00
2023-02-13T00:27:29.033Z,47.70
2023-02-13T00:29:53.432Z,44.97
2023-02-13T00:32:18.086Z,46.65
2023-02-13T00:34:44.173Z,44.95
2023-02-13T00:37:12.108Z,44.63
2023-02-13T00:39:36.468Z,41.58
2023-02-13T00:42:02.460Z,41.45
2023-02-13T00:44:26.887Z,40.88
2023-02-13T00:46:51.990Z,46.03
2023-02-13T00:49:16.443Z,48.30
2023-02-13T00:51:40.913Z,43.40
2023-02-13T00:54:05.434Z,43.05
2023-02-13T00:56:30.174Z,46.22
2023-02-13T00:58:56.023Z,46.92
2023-02-13T01:01:22.813Z,41.65
2023-02-13T01:03:47.446Z,44.33
2023-02-13T01:06:11.957Z,39.90
2023-02-13T01:08:37.944Z,45.75
2023-02-13T01:11:02.829Z,38.47
2023-02-13T01:13:27.736Z,38.20
2023-02-13T01:15:57.195Z,39.92
2023-02-13T01:18:22.373Z,40.83
2023-02-13T01:20:47.617Z,39.53
2023-02-13T01:23:13.162Z,38.30
2023-02-13T01:25:40.451Z,37.03
2023-02-13T01:28:05.288Z,30.88
2023-02-13T01:30:29.755Z,32.92
2023-02-13T01:32:55.776Z,32.22
2023-02-13T01:35:20.331Z,32.72
2023-02-13T01:37:45.354Z,31.23
2023-02-13T01:40:13.616Z,30.23
2023-02-13T01:42:38.189Z,29.77
2023-02-13T01:45:04.246Z,27.42
2023-02-13T01:47:31.461Z,27.38
2023-02-13T01:50:07.499Z,30.98
2023-02-13T01:52:32.361Z,29.95
2023-02-13T01:54:57.242Z,35.90
2023-02-13T01:57:26.222Z,33.88
2023-02-13T01:59:56.577Z,33.90
2023-02-13T02:02:22.185Z,30.83
2023-02-13T02:04:48.105Z,40.25
2023-02-13T02:07:21.402Z,40.23
2023-02-13T02:09:47.629Z,40.92
2023-02-13T02:12:22.427Z,34.97
2023-02-13T02:14:47.240Z,40.10
2023-02-13T02:17:12.824Z,38.15
2023-02-13T02:19:43.204Z,43.08
2023-02-13T02:22:34.459Z,39.15
2023-02-13T02:25:31.839Z,38.13
2023-02-13T02:28:26.251Z,36.55
2023-02-13T02:31:19.525Z,41.38
2023-02-13T02:33:57.077Z,42.08
2023-02-13T02:36:34.309Z,40.13
2023-02-13T02:39:13.236Z,40.08
2023-02-13T02:41:52.307Z,42.70
2023-02-13T02:44:32.802Z,41.17
2023-02-13T02:47:26.414Z,42.22
2023-02-13T02:50:02.253Z,39.33
2023-02-13T02:52:36.107Z,40.42
2023-02-13T02:55:08.629Z,39.72
2023-02-13T02:58:07.561Z,40.30
2023-02-13T03:00:52.355Z,40.35
2023-02-13T03:03:37.810Z,36.78
2023-02-13T03:06:14.152Z,36.30
2023-02-13T03:08:57.811Z,38.80
2023-02-13T03:11:37.150Z,35.50
2023-02-13T03:14:04.728Z,39.25
2023-02-13T03:16:46.549Z,38.20
2023-02-13T03:19:35.965Z,37.13
2023-02-13T03:22:19.728Z,40.38
2023-02-13T03:24:59.939Z,36.58
2023-02-13T03:27:53.121Z,39.30
2023-02-13T03:30:26.648Z,36.95
2023-02-13T03:33:01.107Z,39.75
2023-02-13T03:35:53.039Z,40.25
2023-02-13T03:38:23.620Z,38.20
2023-02-13T03:41:10.663Z,39.70
2023-02-13T03:43:43.222Z,36.47
2023-02-13T03:46:08.531Z,36.20
2023-02-13T03:49:05.833Z,38.00
2023-02-13T03:51:35.410Z,38.45
2023-02-13T03:54:06.425Z,39.72
2023-02-13T03:56:51.030Z,38.90
2023-02-13T03:59:23.579Z,37.15
2023-02-13T04:01:54.768Z,38.25
2023-02-13T04:04:27.926Z,39.90
2023-02-13T04:06:57.519Z,38.85
2023-02-13T04:09:24.452Z,35.58
2023-02-13T04:11:57.636Z,39.28
2023-02-13T04:14:26.477Z,40.67
2023-02-13T04:16:54.512Z,39.75
2023-02-13T04:19:19.755Z,37.42
2023-02-13T04:21:44.224Z,36.03
2023-02-13T04:24:10.016Z,37.40
2023-02-13T04:26:39.221Z,38.13
2023-02-13T04:29:03.864Z,37.67
2023-02-13T04:31:28.390Z,37.30
2023-02-13T04:33:53.208Z,37.05
2023-02-13T04:36:17.576Z,35.83
2023-02-13T04:38:41.952Z,35.78
2023-02-13T04:41:06.832Z,36.22
2023-02-13T04:43:32.770Z,38.30
2023-02-13T04:45:57.657Z,36.78
2023-02-13T04:48:22.268Z,39.13
2023-02-13T04:50:47.896Z,41.70
2023-02-13T04:53:12.430Z,40.08
2023-02-13T04:55:37.424Z,40.58
2023-02-13T04:58:01.828Z,39.13
2023-02-13T05:00:29.918Z,40.45
2023-02-13T05:02:55.064Z,38.10
2023-02-13T05:05:19.548Z,42.13
2023-02-13T05:07:44.253Z,42.30
2023-02-13T05:10:09.653Z,42.80
2023-02-13T05:12:34.162Z,43.42
2023-02-13T05:14:59.007Z,41.92
2023-02-13T05:17:27.324Z,45.83
2023-02-13T05:19:53.207Z,42.95
2023-02-13T05:22:40.197Z,41.90
2023-02-13T05:25:04.685Z,43.33
2023-02-13T05:27:28.962Z,42.25
2023-02-13T05:29:53.342Z,41.45
2023-02-13T05:32:17.729Z,41.08
2023-02-13T05:34:43.479Z,40.75
2023-02-13T05:37:07.783Z,39.25
2023-02-13T05:39:33.829Z,40.97
2023-02-13T05:41:58.626Z,40.88
2023-02-13T05:44:23.037Z,41.08
2023-02-13T05:46:47.611Z,43.75
2023-02-13T05:49:13.232Z,37.92
2023-02-13T05:51:38.966Z,38.33
2023-02-13T05:54:03.411Z,38.55
2023-02-13T05:56:28.156Z,38.40
2023-02-13T05:58:53.816Z,39.80
2023-02-13T06:01:18.213Z,36.10
2023-02-13T06:03:42.671Z,37.92
2023-02-13T06:06:07.420Z,37.17
2023-02-13T06:08:33.326Z,38.17
2023-02-13T06:10:57.816Z,41.13
2023-02-13T06:13:22.535Z,45.15
2023-02-13T06:15:46.916Z,42.13
2023-02-13T06:18:11.587Z,40.10
2023-02-13T06:20:37.612Z,35.95
2023-02-13T06:23:02.478Z,34.92
2023-02-13T06:25:28.276Z,33.05
2023-02-13T06:27:52.767Z,33.33
2023-02-13T06:30:19.184Z,32.00
2023-02-13T06:32:43.610Z,30.95
2023-02-13T06:35:09.099Z,31.20
2023-02-13T06:37:33.483Z,29.80
2023-02-13T06:39:58.035Z,25.63
2023-02-13T06:42:24.481Z,27.13
2023-02-13T06:44:48.907Z,27.15
2023-02-13T06:47:13.303Z,26.70
2023-02-13T06:49:37.915Z,27.98
2023-02-13T06:52:02.648Z,27.38
2023-02-13T06:54:41.407Z,28.08
2023-02-13T06:57:10.575Z,29.10
2023-02-13T06:59:38.377Z,27.73
2023-02-13T07:02:02.745Z,29.42
2023-02-13T07:04:27.126Z,26.85
2023-02-13T07:06:51.719Z,25.20
2023-02-13T07:09:16.705Z,27.42
2023-02-13T07:11:41.338Z,27.95
2023-02-13T07:14:05.687Z,28.80
2023-02-13T07:16:31.851Z,27.70
2023-02-13T07:18:56.264Z,26.33
2023-02-13T07:21:20.711Z,24.48
2023-02-13T07:23:45.377Z,24.65
2023-02-13T07:26:11.202Z,26.98
2023-02-13T07:28:35.548Z,24.23
2023-02-13T07:31:04.619Z,25.52
2023-02-13T07:33:30.602Z,23.35
2023-02-13T07:35:55.010Z,22.88
2023-02-13T07:38:21.682Z,32.33
2023-02-13T07:40:46.319Z,23.58
2023-02-13T07:43:10.914Z,22.77
2023-02-13T07:45:35.301Z,24.40
2023-02-13T07:48:00.406Z,24.70
2023-02-13T07:50:26.137Z,23.13
2023-02-13T07:52:55.873Z,23.98
2023-02-13T07:55:20.187Z,22.90
2023-02-13T07:57:44.511Z,22.95
2023-02-13T08:00:10.652Z,23.08
2023-02-13T08:02:38.444Z,22.75
2023-02-13T08:05:03.209Z,20.77
2023-02-13T08:07:32.320Z,19.83
2023-02-13T08:10:14.176Z,19.60
2023-02-13T08:12:40.449Z,17.77
2023-02-13T08:15:05.835Z,17.60
2023-02-13T08:17:31.431Z,13.25
2023-02-13T08:19:56.457Z,13.10
2023-02-13T08:22:21.122Z,11.23
2023-02-13T08:24:46.979Z,9.77
2023-02-13T08:27:14.421Z,6.80
2023-02-13T08:29:39.194Z,6.30
2023-02-13T08:32:03.859Z,5.10
2023-02-13T08:34:28.905Z,5.50
2023-02-13T08:36:54.129Z,5.47
2023-02-13T08:39:19.043Z,6.25
2023-02-13T08:41:44.994Z,6.30
2023-02-13T08:44:11.136Z,7.88
2023-02-13T08:46:36.029Z,5.97
2023-02-13T08:49:00.823Z,7.22
2023-02-13T08:51:25.909Z,6.78
2023-02-13T09:27:42.492Z,6.97
2023-02-13T12:45:38.437Z,19.50
2023-02-13T13:07:46.952Z,21.27
2023-02-13T13:10:58.386Z,21.03
2023-02-13T13:16:59.460Z,19.52
2023-02-13T13:19:39.771Z,19.55
2023-02-13T13:22:18.360Z,20.95
2023-02-13T13:24:52.081Z,21.05
2023-02-13T13:27:24.709Z,22.17
2023-02-13T13:29:58.055Z,22.52
2023-02-13T13:32:27.672Z,21.90
2023-02-13T13:35:31.187Z,23.60
2023-02-13T13:38:25.516Z,21.65
2023-02-13T13:40:57.797Z,22.83
2023-02-13T13:43:29.819Z,22.75
2023-02-13T13:46:07.151Z,23.25
2023-02-13T13:49:06.922Z,20.80
2023-02-13T13:51:34.645Z,22.58
2023-02-13T13:54:25.617Z,21.77
2023-02-13T13:57:48.259Z,22.17
2023-02-13T14:00:35.180Z,22.85
2023-02-13T14:03:49.969Z,22.95
2023-02-13T14:06:16.793Z,22.77
2023-02-13T14:09:09.573Z,24.17
2023-02-13T14:11:39.770Z,23.15
2023-02-13T14:14:52.702Z,24.17
2023-02-13T14:17:18.841Z,24.67
2023-02-13T14:19:56.915Z,24.65
2023-02-13T14:22:35.574Z,24.50
2023-02-13T14:25:01.855Z,23.83
2023-02-13T14:27:30.354Z,24.13
2023-02-13T14:31:17.033Z,24.15
2023-02-13T14:33:44.423Z,23.83
2023-02-13T14:36:22.162Z,25.35
2023-02-13T14:38:55.801Z,24.15
2023-02-13T14:41:57.750Z,24.33
2023-02-13T14:44:26.410Z,23.75
2023-02-13T14:46:58.435Z,24.17
2023-02-13T14:49:26.784Z,25.40
2023-02-13T14:51:57.277Z,25.95
2023-02-13T14:54:31.442Z,26.95
2023-02-13T14:57:46.133Z,26.48
2023-02-13T15:01:48.537Z,27.08
2023-02-13T15:10:37.403Z,25.63
2023-02-13T15:13:56.164Z,27.70
2023-02-13T15:16:44.995Z,35.17
2023-02-13T15:19:17.366Z,29.13
2023-02-13T15:22:14.494Z,29.52
2023-02-13T15:25:06.458Z,30.13
2023-02-13T15:28:18.392Z,28.20
2023-02-13T15:30:59.113Z,29.80
2023-02-13T15:34:08.971Z,30.17
2023-02-13T15:36:57.977Z,28.48
2023-02-13T15:39:54.200Z,28.08
2023-02-13T15:43:24.410Z,29.75
2023-02-13T15:45:55.599Z,29.20
2023-02-13T15:48:28.758Z,31.85
2023-02-13T15:51:24.411Z,32.67
2023-02-13T15:54:03.272Z,31.83
2023-02-13T15:57:03.790Z,31.42
2023-02-13T15:59:36.622Z,33.05
2023-02-13T16:02:07.106Z,34.97
2023-02-13T16:04:40.785Z,36.38
2023-02-13T16:07:16.696Z,35.20
2023-02-13T16:09:43.552Z,34.97
2023-02-13T16:12:22.521Z,35.00
2023-02-13T16:14:53.110Z,34.33
2023-02-13T16:17:20.593Z,34.33
2023-02-13T16:19:54.549Z,33.65
2023-02-13T16:22:30.773Z,34.08
2023-02-13T16:25:03.096Z,34.03
2023-02-13T16:27:32.805Z,34.17
2023-02-13T16:30:01.964Z,34.45
2023-02-13T16:32:41.565Z,35.05
2023-02-13T16:35:32.526Z,34.33
2023-02-13T16:38:07.393Z,33.45
2023-02-13T16:41:02.530Z,34.45
2023-02-13T16:44:01.838Z,35.78
2023-02-13T16:46:55.173Z,35.53
2023-02-13T16:49:37.826Z,38.00
2023-02-13T16:52:24.300Z,38.92
2023-02-13T16:55:00.652Z,37.85
2023-02-13T16:57:39.286Z,37.83
2023-02-13T17:00:09.912Z,52.28
2023-02-13T17:02:37.392Z,54.20
2023-02-13T17:05:18.505Z,51.30
2023-02-13T17:07:45.148Z,47.67
2023-02-13T17:10:20.354Z,47.28
2023-02-13T17:12:46.226Z,49.60
2023-02-13T17:15:14.111Z,50.65
2023-02-13T17:17:47.594Z,54.63
2023-02-13T17:20:17.736Z,58.80
2023-02-13T17:22:47.425Z,59.28
2023-02-13T17:25:20.862Z,59.65
2023-02-13T17:27:45.938Z,55.67
2023-02-13T17:30:21.174Z,51.28
2023-02-13T17:32:52.705Z,53.30
2023-02-13T17:35:34.693Z,54.47
2023-02-13T17:38:02.341Z,53.13
2023-02-13T17:40:30.321Z,55.97
2023-02-13T17:43:17.158Z,54.42
2023-02-13T17:45:43.762Z,57.22
2023-02-13T17:48:09.975Z,55.22
2023-02-13T17:50:35.463Z,54.97
2023-02-13T17:53:02.570Z,57.92
2023-02-13T17:55:30.874Z,56.97
2023-02-13T17:57:57.663Z,57.70
2023-02-13T18:00:22.943Z,57.90
2023-02-13T18:02:48.008Z,58.15
2023-02-13T18:05:13.990Z,59.38
2023-02-13T18:07:39.529Z,58.20
2023-02-13T18:10:04.057Z,62.72
2023-02-13T18:12:28.477Z,60.70
2023-02-13T18:14:54.065Z,58.15
2023-02-13T18:17:19.462Z,61.75
2023-02-13T18:19:44.207Z,63.17
2023-02-13T18:22:11.462Z,64.07
2023-02-13T18:24:37.754Z,56.42
2023-02-13T18:27:02.333Z,55.25
2023-02-13T18:29:27.279Z,57.78
2023-02-13T18:31:53.361Z,63.28
2023-02-13T18:34:17.845Z,70.13
2023-02-13T18:36:42.229Z,70.75
2023-02-13T18:39:08.655Z,71.47
2023-02-13T18:41:33.035Z,72.68
2023-02-13T18:43:58.160Z,76.25
2023-02-13T18:46:23.777Z,75.28
2023-02-13T18:48:48.464Z,75.47
2023-02-13T18:51:12.835Z,73.60
2023-02-13T18:53:37.245Z,72.43
2023-02-13T18:56:05.405Z,70.40
2023-02-13T18:58:30.771Z,68.03
2023-02-13T19:00:55.316Z,67.45
2023-02-13T19:03:19.902Z,70.63
2023-02-13T19:05:44.537Z,77.10
2023-02-13T19:08:09.074Z,74.30
2023-02-13T19:10:33.523Z,75.35
2023-02-13T19:12:59.421Z,77.68
2023-02-13T19:15:23.763Z,78.10
2023-02-13T19:17:48.447Z,77.00
2023-02-13T19:20:16.513Z,75.93
2023-02-13T19:22:41.245Z,80.40
2023-02-13T19:25:05.884Z,80.35
2023-02-13T19:27:31.492Z,81.07
2023-02-13T19:29:57.796Z,82.90
2023-02-13T19:32:26.342Z,81.38
2023-02-13T19:34:50.906Z,82.10
2023-02-13T19:37:15.506Z,80.63
2023-02-13T19:39:40.344Z,81.93
2023-02-13T19:42:05.191Z,80.50
2023-02-13T19:44:29.725Z,81.97
2023-02-13T19:46:55.508Z,78.47
2023-02-13T19:49:22.390Z,81.75
2023-02-13T19:51:47.424Z,80.38
2023-02-13T19:54:12.888Z,79.60
2023-02-13T19:56:39.325Z,80.25
2023-02-13T19:59:04.214Z,81.00
2023-02-13T20:01:30.743Z,83.88
2023-02-13T20:03:57.174Z,83.32
2023-02-13T20:06:23.930Z,79.93
2023-02-13T20:08:48.581Z,79.32
2023-02-13T20:11:15.389Z,79.30
2023-02-13T20:13:42.860Z,79.88
2023-02-13T20:16:08.479Z,80.97
2023-02-13T20:18:33.696Z,82.70
2023-02-13T20:20:59.776Z,81.57
2023-02-13T20:23:24.513Z,82.38
2023-02-13T20:25:48.890Z,79.82
2023-02-13T20:28:13.294Z,82.50
2023-02-13T20:30:37.922Z,80.13
2023-02-13T20:33:02.288Z,83.70
2023-02-13T20:35:26.905Z,81.20
2023-02-13T20:37:52.631Z,84.20
2023-02-13T20:40:17.389Z,82.75
2023-02-13T20:42:41.738Z,83.68
2023-02-13T20:45:07.103Z,82.20
2023-02-13T20:47:32.760Z,82.72
2023-02-13T20:49:57.183Z,83.47
2023-02-13T20:52:21.540Z,79.78
2023-02-13T20:54:47.870Z,80.40
2023-02-13T20:57:13.372Z,81.07
2023-02-13T20:59:40.076Z,81.68
2023-02-13T21:02:04.530Z,81.68
2023-02-13T21:04:30.268Z,80.57
2023-02-13T21:06:55.706Z,81.18
2023-02-13T21:09:20.168Z,79.13
2023-02-13T21:11:46.166Z,80.40
2023-02-13T21:14:11.932Z,76.88
2023-02-13T21:16:38.945Z,80.10
2023-02-13T21:19:07.120Z,80.43
2023-02-13T21:21:34.129Z,77.97
2023-02-13T21:24:00.775Z,77.63
2023-02-13T21:26:26.349Z,80.78
2023-02-13T21:28:53.102Z,79.68
2023-02-13T21:31:20.695Z,77.60
2023-02-13T21:33:45.712Z,80.70
2023-02-13T21:36:13.537Z,79.35
2023-02-13T21:38:40.253Z,80.30
2023-02-13T21:41:09.038Z,80.32
2023-02-13T21:43:37.747Z,80.57
2023-02-13T21:46:09.966Z,80.25
2023-02-13T21:48:34.790Z,81.30
2023-02-13T21:50:59.781Z,83.65
2023-02-13T21:53:24.446Z,81.90
2023-02-13T21:55:48.813Z,80.40
2023-02-13T21:58:13.231Z,81.68
2023-02-13T22:00:37.690Z,82.88
2023-02-13T22:03:03.941Z,78.32
2023-02-13T22:05:28.336Z,79.60
2023-02-13T22:08:12.466Z,81.53
2023-02-13T22:10:36.865Z,77.38
2023-02-13T22:13:01.210Z,78.22
2023-02-13T22:15:26.029Z,82.32
2023-02-13T22:17:50.413Z,78.32
2023-02-13T22:20:16.484Z,81.25
2023-02-13T22:22:41.025Z,79.07
2023-02-13T22:25:05.579Z,79.20
2023-02-13T22:27:30.419Z,78.15
2023-02-13T22:29:55.891Z,80.35
2023-02-13T22:32:20.534Z,75.55
2023-02-13T22:34:45.115Z,76.78
2023-02-13T22:37:12.706Z,76.32
2023-02-13T22:39:37.200Z,79.22
2023-02-13T22:42:01.473Z,74.60
2023-02-13T22:44:25.868Z,77.03
2023-02-13T22:46:50.263Z,78.20
2023-02-13T22:49:14.590Z,74.32
2023-02-13T22:51:39.067Z,75.22
2023-02-13T22:54:05.349Z,77.57
2023-02-13T22:56:31.065Z,75.63
2023-02-13T22:58:55.761Z,77.30
2023-02-13T23:01:22.093Z,75.50
2023-02-13T23:03:46.675Z,77.25
2023-02-13T23:06:12.479Z,76.05
2023-02-13T23:08:39.826Z,74.30
2023-02-13T23:11:26.318Z,78.85
2023-02-13T23:13:50.774Z,77.50
2023-02-13T23:16:15.915Z,78.53
2023-02-13T23:18:39.280Z,76.57
2023-02-13T23:21:06.533Z,74.75
2023-02-13T23:23:30.847Z,74.68
2023-02-13T23:25:55.275Z,74.43
2023-02-13T23:28:21.001Z,76.15
2023-02-13T23:30:45.491Z,73.22
2023-02-13T23:33:10.174Z,77.10
2023-02-13T23:35:34.659Z,75.20
2023-02-13T23:37:59.301Z,75.43
2023-02-13T23:40:23.974Z,75.43
2023-02-13T23:42:48.555Z,75.78
2023-02-13T23:45:14.932Z,75.15
2023-02-13T23:47:39.931Z,75.32
2023-02-13T23:50:05.235Z,74.95
2023-02-13T23:52:29.719Z,74.72
2023-02-13T23:54:54.314Z,73.43
2023-02-13T23:57:20.046Z,76.07
2023-02-13T23:59:44.512Z,72.72
